sensor_id;sensor_type;location;lat;lon;timestamp;P1;durP1;ratioP1;P2;durP2;ratioP2
10801;SDS011;5453;50.852;7.102;2023-09-18T00:00:34;3.92;;;2.63;;
10801;SDS011;5453;50.852;7.102;2023-09-18T00:03:08;4.63;;;2.83;;
10801;SDS011;5453;50.852;7.102;2023-09-18T00:05:41;4.95;;;2.90;;
10801;SDS011;5453;50.852;7.102;2023-09-18T00:08:13;3.78;;;2.53;;
10801;SDS011;5453;50.852;7.102;2023-09-18T00:10:46;4.70;;;2.70;;
10801;SDS011;5453;50.852;7.102;2023-09-18T00:13:21;4.22;;;2.85;;
10801;SDS011;5453;50.852;7.102;2023-09-18T00:15:54;4.65;;;2.80;;
10801;SDS011;5453;50.852;7.102;2023-09-18T00:18:30;5.95;;;3.30;;
10801;SDS011;5453;50.852;7.102;2023-09-18T00:21:02;4.85;;;3.08;;
10801;SDS011;5453;50.852;7.102;2023-09-18T00:23:36;7.68;;;3.15;;
10801;SDS011;5453;50.852;7.102;2023-09-18T00:26:09;6.65;;;3.40;;
10801;SDS011;5453;50.852;7.102;2023-09-18T00:28:43;4.43;;;3.13;;
10801;SDS011;5453;50.852;7.102;2023-09-18T00:31:15;6.38;;;2.97;;
10801;SDS011;5453;50.852;7.102;2023-09-18T00:33:47;5.10;;;3.05;;
10801;SDS011;5453;50.852;7.102;2023-09-18T00:36:19;6.80;;;3.17;;
10801;SDS011;5453;50.852;7.102;2023-09-18T00:38:51;7.55;;;3.30;;
10801;SDS011;5453;50.852;7.102;2023-09-18T00:41:23;6.72;;;3.33;;
10801;SDS011;5453;50.852;7.102;2023-09-18T00:43:57;5.55;;;3.03;;
10801;SDS011;5453;50.852;7.102;2023-09-18T00:46:30;4.45;;;3.13;;
10801;SDS011;5453;50.852;7.102;2023-09-18T00:49:03;7.25;;;3.15;;
10801;SDS011;5453;50.852;7.102;2023-09-18T00:51:36;6.68;;;3.28;;
10801;SDS011;5453;50.852;7.102;2023-09-18T00:54:08;6.78;;;3.67;;
10801;SDS011;5453;50.852;7.102;2023-09-18T00:56:41;5.28;;;2.80;;
10801;SDS011;5453;50.852;7.102;2023-09-18T00:59:15;7.05;;;3.28;;
10801;SDS011;5453;50.852;7.102;2023-09-18T01:01:48;8.30;;;3.22;;
10801;SDS011;5453;50.852;7.102;2023-09-18T01:04:22;5.85;;;3.50;;
10801;SDS011;5453;50.852;7.102;2023-09-18T01:07:00;7.95;;;3.28;;
10801;SDS011;5453;50.852;7.102;2023-09-18T01:09:33;7.70;;;3.70;;
10801;SDS011;5453;50.852;7.102;2023-09-18T01:12:08;7.03;;;3.50;;
10801;SDS011;5453;50.852;7.102;2023-09-18T01:14:50;5.70;;;3.00;;
10801;SDS011;5453;50.852;7.102;2023-09-18T01:17:29;7.60;;;3.10;;
10801;SDS011;5453;50.852;7.102;2023-09-18T01:20:09;9.73;;;3.13;;
10801;SDS011;5453;50.852;7.102;2023-09-18T01:22:45;9.13;;;3.30;;
10801;SDS011;5453;50.852;7.102;2023-09-18T01:25:19;6.97;;;3.20;;
10801;SDS011;5453;50.852;7.102;2023-09-18T01:27:52;6.75;;;3.33;;
10801;SDS011;5453;50.852;7.102;2023-09-18T01:30:24;7.50;;;3.33;;
10801;SDS011;5453;50.852;7.102;2023-09-18T01:32:56;6.75;;;2.92;;
10801;SDS011;5453;50.852;7.102;2023-09-18T01:35:29;4.28;;;2.78;;
10801;SDS011;5453;50.852;7.102;2023-09-18T01:38:09;6.43;;;3.42;;
10801;SDS011;5453;50.852;7.102;2023-09-18T01:40:43;4.82;;;2.63;;
10801;SDS011;5453;50.852;7.102;2023-09-18T01:43:15;5.78;;;3.35;;
10801;SDS011;5453;50.852;7.102;2023-09-18T01:45:48;5.30;;;3.50;;
10801;SDS011;5453;50.852;7.102;2023-09-18T01:48:21;5.07;;;2.90;;
10801;SDS011;5453;50.852;7.102;2023-09-18T01:50:54;5.65;;;2.85;;
10801;SDS011;5453;50.852;7.102;2023-09-18T01:53:27;4.57;;;2.58;;
10801;SDS011;5453;50.852;7.102;2023-09-18T01:55:59;6.65;;;2.92;;
10801;SDS011;5453;50.852;7.102;2023-09-18T01:58:32;7.15;;;3.50;;
10801;SDS011;5453;50.852;7.102;2023-09-18T02:01:04;5.47;;;3.05;;
10801;SDS011;5453;50.852;7.102;2023-09-18T02:03:36;5.63;;;2.97;;
10801;SDS011;5453;50.852;7.102;2023-09-18T02:06:11;8.20;;;2.97;;
10801;SDS011;5453;50.852;7.102;2023-09-18T02:08:46;4.75;;;2.90;;
10801;SDS011;5453;50.852;7.102;2023-09-18T02:11:19;5.50;;;2.60;;
10801;SDS011;5453;50.852;7.102;2023-09-18T02:13:51;6.82;;;3.10;;
10801;SDS011;5453;50.852;7.102;2023-09-18T02:16:23;9.18;;;3.72;;
10801;SDS011;5453;50.852;7.102;2023-09-18T02:18:56;8.02;;;3.28;;
10801;SDS011;5453;50.852;7.102;2023-09-18T02:21:29;4.68;;;2.63;;
10801;SDS011;5453;50.852;7.102;2023-09-18T02:24:03;5.70;;;2.95;;
10801;SDS011;5453;50.852;7.102;2023-09-18T02:26:36;5.97;;;3.13;;
10801;SDS011;5453;50.852;7.102;2023-09-18T02:29:09;4.65;;;3.10;;
10801;SDS011;5453;50.852;7.102;2023-09-18T02:31:41;5.65;;;3.38;;
10801;SDS011;5453;50.852;7.102;2023-09-18T02:34:13;6.88;;;3.25;;
10801;SDS011;5453;50.852;7.102;2023-09-18T02:36:45;6.15;;;3.17;;
10801;SDS011;5453;50.852;7.102;2023-09-18T02:39:19;6.85;;;2.90;;
10801;SDS011;5453;50.852;7.102;2023-09-18T02:41:51;9.32;;;3.42;;
10801;SDS011;5453;50.852;7.102;2023-09-18T02:44:24;6.70;;;3.58;;
10801;SDS011;5453;50.852;7.102;2023-09-18T02:46:56;4.25;;;2.78;;
10801;SDS011;5453;50.852;7.102;2023-09-18T02:49:28;6.20;;;3.08;;
10801;SDS011;5453;50.852;7.102;2023-09-18T02:52:03;6.63;;;2.80;;
10801;SDS011;5453;50.852;7.102;2023-09-18T02:54:38;7.03;;;3.35;;
10801;SDS011;5453;50.852;7.102;2023-09-18T02:57:10;4.22;;;2.65;;
10801;SDS011;5453;50.852;7.102;2023-09-18T02:59:44;7.57;;;3.05;;
10801;SDS011;5453;50.852;7.102;2023-09-18T03:02:17;4.45;;;2.95;;
10801;SDS011;5453;50.852;7.102;2023-09-18T03:04:49;6.25;;;2.83;;
10801;SDS011;5453;50.852;7.102;2023-09-18T03:07:21;4.40;;;2.65;;
10801;SDS011;5453;50.852;7.102;2023-09-18T03:09:55;3.45;;;2.38;;
10801;SDS011;5453;50.852;7.102;2023-09-18T03:12:28;5.90;;;3.03;;
10801;SDS011;5453;50.852;7.102;2023-09-18T03:15:02;4.05;;;2.75;;
10801;SDS011;5453;50.852;7.102;2023-09-18T03:17:38;4.20;;;2.70;;
10801;SDS011;5453;50.852;7.102;2023-09-18T03:20:12;5.18;;;2.80;;
10801;SDS011;5453;50.852;7.102;2023-09-18T03:22:45;5.75;;;3.05;;
10801;SDS011;5453;50.852;7.102;2023-09-18T03:25:18;5.55;;;2.70;;
10801;SDS011;5453;50.852;7.102;2023-09-18T03:27:53;4.13;;;2.60;;
10801;SDS011;5453;50.852;7.102;2023-09-18T03:30:31;7.35;;;3.17;;
10801;SDS011;5453;50.852;7.102;2023-09-18T03:33:05;6.18;;;2.80;;
10801;SDS011;5453;50.852;7.102;2023-09-18T03:35:44;5.82;;;2.85;;
10801;SDS011;5453;50.852;7.102;2023-09-18T03:38:19;5.28;;;2.85;;
10801;SDS011;5453;50.852;7.102;2023-09-18T03:40:54;6.88;;;2.85;;
10801;SDS011;5453;50.852;7.102;2023-09-18T03:43:26;5.53;;;2.65;;
10801;SDS011;5453;50.852;7.102;2023-09-18T03:46:02;5.80;;;2.67;;
10801;SDS011;5453;50.852;7.102;2023-09-18T03:48:41;8.63;;;3.42;;
10801;SDS011;5453;50.852;7.102;2023-09-18T03:51:14;8.43;;;2.95;;
10801;SDS011;5453;50.852;7.102;2023-09-18T03:53:46;7.22;;;3.03;;
10801;SDS011;5453;50.852;7.102;2023-09-18T03:56:19;6.03;;;2.60;;
10801;SDS011;5453;50.852;7.102;2023-09-18T03:58:52;5.60;;;2.53;;
10801;SDS011;5453;50.852;7.102;2023-09-18T04:01:24;5.72;;;2.83;;
10801;SDS011;5453;50.852;7.102;2023-09-18T04:03:56;4.88;;;2.42;;
10801;SDS011;5453;50.852;7.102;2023-09-18T04:06:35;6.65;;;2.75;;
10801;SDS011;5453;50.852;7.102;2023-09-18T04:09:10;6.05;;;2.72;;
10801;SDS011;5453;50.852;7.102;2023-09-18T04:11:43;6.53;;;2.60;;
10801;SDS011;5453;50.852;7.102;2023-09-18T04:14:15;7.93;;;3.63;;
10801;SDS011;5453;50.852;7.102;2023-09-18T04:16:47;5.85;;;2.60;;
10801;SDS011;5453;50.852;7.102;2023-09-18T04:19:20;8.55;;;2.60;;
10801;SDS011;5453;50.852;7.102;2023-09-18T04:21:52;5.20;;;2.33;;
10801;SDS011;5453;50.852;7.102;2023-09-18T04:24:24;7.30;;;2.53;;
10801;SDS011;5453;50.852;7.102;2023-09-18T04:26:59;5.25;;;2.58;;
10801;SDS011;5453;50.852;7.102;2023-09-18T04:29:32;8.07;;;2.67;;
10801;SDS011;5453;50.852;7.102;2023-09-18T04:32:04;4.85;;;2.03;;
10801;SDS011;5453;50.852;7.102;2023-09-18T04:34:38;9.05;;;2.55;;
10801;SDS011;5453;50.852;7.102;2023-09-18T04:37:10;5.47;;;2.33;;
10801;SDS011;5453;50.852;7.102;2023-09-18T04:39:42;6.45;;;2.63;;
10801;SDS011;5453;50.852;7.102;2023-09-18T04:42:17;7.30;;;2.35;;
10801;SDS011;5453;50.852;7.102;2023-09-18T04:44:49;8.63;;;2.05;;
10801;SDS011;5453;50.852;7.102;2023-09-18T04:47:21;7.93;;;2.40;;
10801;SDS011;5453;50.852;7.102;2023-09-18T04:49:54;7.65;;;2.50;;
10801;SDS011;5453;50.852;7.102;2023-09-18T04:52:26;7.20;;;2.60;;
10801;SDS011;5453;50.852;7.102;2023-09-18T04:54:58;6.22;;;2.15;;
10801;SDS011;5453;50.852;7.102;2023-09-18T04:57:32;5.57;;;1.92;;
10801;SDS011;5453;50.852;7.102;2023-09-18T05:00:05;6.15;;;2.60;;
10801;SDS011;5453;50.852;7.102;2023-09-18T05:02:40;3.17;;;1.83;;
10801;SDS011;5453;50.852;7.102;2023-09-18T05:05:13;7.20;;;2.42;;
10801;SDS011;5453;50.852;7.102;2023-09-18T05:07:45;6.88;;;2.60;;
10801;SDS011;5453;50.852;7.102;2023-09-18T05:10:18;7.28;;;2.05;;
10801;SDS011;5453;50.852;7.102;2023-09-18T05:12:53;5.63;;;2.47;;
10801;SDS011;5453;50.852;7.102;2023-09-18T05:15:28;5.05;;;2.40;;
10801;SDS011;5453;50.852;7.102;2023-09-18T05:18:01;4.15;;;1.70;;
10801;SDS011;5453;50.852;7.102;2023-09-18T05:20:34;7.43;;;2.30;;
10801;SDS011;5453;50.852;7.102;2023-09-18T05:23:07;4.95;;;1.90;;
10801;SDS011;5453;50.852;7.102;2023-09-18T05:25:39;5.45;;;1.88;;
10801;SDS011;5453;50.852;7.102;2023-09-18T05:28:15;5.00;;;2.13;;
10801;SDS011;5453;50.852;7.102;2023-09-18T05:30:47;3.25;;;1.83;;
10801;SDS011;5453;50.852;7.102;2023-09-18T05:33:19;4.53;;;1.92;;
10801;SDS011;5453;50.852;7.102;2023-09-18T05:35:52;5.47;;;2.13;;
10801;SDS011;5453;50.852;7.102;2023-09-18T05:38:24;4.93;;;1.70;;
10801;SDS011;5453;50.852;7.102;2023-09-18T05:40:56;4.18;;;1.88;;
10801;SDS011;5453;50.852;7.102;2023-09-18T05:43:30;3.55;;;1.92;;
10801;SDS011;5453;50.852;7.102;2023-09-18T05:46:01;3.47;;;1.92;;
10801;SDS011;5453;50.852;7.102;2023-09-18T05:48:36;5.55;;;2.60;;
10801;SDS011;5453;50.852;7.102;2023-09-18T05:51:08;5.43;;;2.30;;
10801;SDS011;5453;50.852;7.102;2023-09-18T05:53:40;5.97;;;2.25;;
10801;SDS011;5453;50.852;7.102;2023-09-18T05:56:13;5.85;;;2.10;;
10801;SDS011;5453;50.852;7.102;2023-09-18T05:58:48;3.33;;;1.92;;
10801;SDS011;5453;50.852;7.102;2023-09-18T06:01:22;4.10;;;1.92;;
10801;SDS011;5453;50.852;7.102;2023-09-18T06:03:55;5.43;;;1.80;;
10801;SDS011;5453;50.852;7.102;2023-09-18T06:06:27;3.75;;;1.73;;
10801;SDS011;5453;50.852;7.102;2023-09-18T06:08:59;4.72;;;1.67;;
10801;SDS011;5453;50.852;7.102;2023-09-18T06:11:32;6.25;;;1.92;;
10801;SDS011;5453;50.852;7.102;2023-09-18T06:14:05;3.58;;;1.63;;
10801;SDS011;5453;50.852;7.102;2023-09-18T06:16:37;5.28;;;1.90;;
10801;SDS011;5453;50.852;7.102;2023-09-18T06:19:09;3.55;;;1.55;;
10801;SDS011;5453;50.852;7.102;2023-09-18T06:21:41;4.45;;;1.75;;
10801;SDS011;5453;50.852;7.102;2023-09-18T06:24:14;3.92;;;1.50;;
10801;SDS011;5453;50.852;7.102;2023-09-18T06:26:46;4.60;;;1.63;;
10801;SDS011;5453;50.852;7.102;2023-09-18T06:29:19;4.63;;;1.55;;
10801;SDS011;5453;50.852;7.102;2023-09-18T06:31:51;2.67;;;1.73;;
10801;SDS011;5453;50.852;7.102;2023-09-18T06:34:24;4.97;;;1.80;;
10801;SDS011;5453;50.852;7.102;2023-09-18T06:36:56;4.13;;;1.50;;
10801;SDS011;5453;50.852;7.102;2023-09-18T06:39:28;3.15;;;1.23;;
10801;SDS011;5453;50.852;7.102;2023-09-18T06:42:00;3.75;;;1.48;;
10801;SDS011;5453;50.852;7.102;2023-09-18T06:44:34;4.28;;;1.60;;
10801;SDS011;5453;50.852;7.102;2023-09-18T06:47:06;5.28;;;1.60;;
10801;SDS011;5453;50.852;7.102;2023-09-18T06:49:39;4.40;;;1.52;;
10801;SDS011;5453;50.852;7.102;2023-09-18T06:52:11;3.97;;;1.42;;
10801;SDS011;5453;50.852;7.102;2023-09-18T06:54:45;3.70;;;1.20;;
10801;SDS011;5453;50.852;7.102;2023-09-18T06:57:18;4.15;;;1.45;;
10801;SDS011;5453;50.852;7.102;2023-09-18T06:59:52;3.53;;;1.10;;
10801;SDS011;5453;50.852;7.102;2023-09-18T07:02:25;4.40;;;1.40;;
10801;SDS011;5453;50.852;7.102;2023-09-18T07:04:57;2.90;;;1.35;;
10801;SDS011;5453;50.852;7.102;2023-09-18T07:07:29;3.05;;;1.30;;
10801;SDS011;5453;50.852;7.102;2023-09-18T07:10:02;4.78;;;1.40;;
10801;SDS011;5453;50.852;7.102;2023-09-18T07:12:35;3.88;;;1.40;;
10801;SDS011;5453;50.852;7.102;2023-09-18T07:15:10;4.30;;;1.38;;
10801;SDS011;5453;50.852;7.102;2023-09-18T07:17:42;3.15;;;1.08;;
10801;SDS011;5453;50.852;7.102;2023-09-18T07:20:14;3.47;;;1.13;;
10801;SDS011;5453;50.852;7.102;2023-09-18T07:22:47;2.45;;;1.23;;
10801;SDS011;5453;50.852;7.102;2023-09-18T07:25:20;4.47;;;1.27;;
10801;SDS011;5453;50.852;7.102;2023-09-18T07:27:52;2.55;;;1.20;;
10801;SDS011;5453;50.852;7.102;2023-09-18T07:30:26;3.40;;;1.02;;
10801;SDS011;5453;50.852;7.102;2023-09-18T07:32:59;2.88;;;1.00;;
10801;SDS011;5453;50.852;7.102;2023-09-18T07:35:31;3.10;;;1.08;;
10801;SDS011;5453;50.852;7.102;2023-09-18T07:38:03;5.00;;;1.13;;
10801;SDS011;5453;50.852;7.102;2023-09-18T07:40:36;3.40;;;1.05;;
10801;SDS011;5453;50.852;7.102;2023-09-18T07:43:08;3.30;;;1.00;;
10801;SDS011;5453;50.852;7.102;2023-09-18T07:45:41;3.70;;;1.17;;
10801;SDS011;5453;50.852;7.102;2023-09-18T07:48:13;2.85;;;1.13;;
10801;SDS011;5453;50.852;7.102;2023-09-18T07:50:47;3.42;;;1.20;;
10801;SDS011;5453;50.852;7.102;2023-09-18T07:53:19;2.85;;;0.82;;
10801;SDS011;5453;50.852;7.102;2023-09-18T07:55:55;1.70;;;0.95;;
10801;SDS011;5453;50.852;7.102;2023-09-18T07:58:29;2.13;;;1.00;;
10801;SDS011;5453;50.852;7.102;2023-09-18T08:01:02;1.65;;;0.80;;
10801;SDS011;5453;50.852;7.102;2023-09-18T08:03:36;3.38;;;0.93;;
10801;SDS011;5453;50.852;7.102;2023-09-18T08:06:08;1.83;;;0.90;;
10801;SDS011;5453;50.852;7.102;2023-09-18T08:08:41;2.25;;;0.90;;
10801;SDS011;5453;50.852;7.102;2023-09-18T08:11:13;1.40;;;0.95;;
10801;SDS011;5453;50.852;7.102;2023-09-18T08:13:45;1.52;;;0.85;;
10801;SDS011;5453;50.852;7.102;2023-09-18T08:16:19;2.47;;;0.90;;
10801;SDS011;5453;50.852;7.102;2023-09-18T08:18:51;3.92;;;1.23;;
10801;SDS011;5453;50.852;7.102;2023-09-18T08:21:23;3.03;;;1.17;;
10801;SDS011;5453;50.852;7.102;2023-09-18T08:23:55;1.60;;;1.00;;
10801;SDS011;5453;50.852;7.102;2023-09-18T08:26:27;2.83;;;1.00;;
10801;SDS011;5453;50.852;7.102;2023-09-18T08:28:59;1.55;;;0.90;;
10801;SDS011;5453;50.852;7.102;2023-09-18T08:31:33;3.05;;;1.10;;
10801;SDS011;5453;50.852;7.102;2023-09-18T08:34:05;1.98;;;1.10;;
10801;SDS011;5453;50.852;7.102;2023-09-18T08:36:37;5.75;;;1.30;;
10801;SDS011;5453;50.852;7.102;2023-09-18T08:39:09;1.60;;;0.93;;
10801;SDS011;5453;50.852;7.102;2023-09-18T08:41:42;2.47;;;1.17;;
10801;SDS011;5453;50.852;7.102;2023-09-18T08:44:15;1.33;;;0.85;;
10801;SDS011;5453;50.852;7.102;2023-09-18T08:46:50;2.58;;;0.90;;
10801;SDS011;5453;50.852;7.102;2023-09-18T08:49:23;2.75;;;0.90;;
10801;SDS011;5453;50.852;7.102;2023-09-18T08:51:56;3.55;;;1.02;;
10801;SDS011;5453;50.852;7.102;2023-09-18T08:54:30;1.83;;;1.00;;
10801;SDS011;5453;50.852;7.102;2023-09-18T08:57:03;3.28;;;1.10;;
10801;SDS011;5453;50.852;7.102;2023-09-18T08:59:38;1.60;;;1.13;;
10801;SDS011;5453;50.852;7.102;2023-09-18T09:02:13;2.63;;;1.10;;
10801;SDS011;5453;50.852;7.102;2023-09-18T09:04:45;2.45;;;1.02;;
10801;SDS011;5453;50.852;7.102;2023-09-18T09:07:17;3.55;;;1.05;;
10801;SDS011;5453;50.852;7.102;2023-09-18T09:09:49;2.17;;;1.20;;
10801;SDS011;5453;50.852;7.102;2023-09-18T09:15:25;3.10;;;1.08;;
10801;SDS011;5453;50.852;7.102;2023-09-18T09:18:05;2.42;;;1.05;;
10801;SDS011;5453;50.852;7.102;2023-09-18T09:20:39;2.78;;;1.35;;
10801;SDS011;5453;50.852;7.102;2023-09-18T09:23:11;2.17;;;1.00;;
10801;SDS011;5453;50.852;7.102;2023-09-18T09:25:43;1.48;;;0.90;;
10801;SDS011;5453;50.852;7.102;2023-09-18T09:28:26;1.17;;;0.93;;
10801;SDS011;5453;50.852;7.102;2023-09-18T09:31:01;2.20;;;1.00;;
10801;SDS011;5453;50.852;7.102;2023-09-18T09:33:35;2.05;;;0.90;;
10801;SDS011;5453;50.852;7.102;2023-09-18T09:36:08;2.88;;;1.08;;
10801;SDS011;5453;50.852;7.102;2023-09-18T09:38:40;2.92;;;1.27;;
10801;SDS011;5453;50.852;7.102;2023-09-18T09:41:15;2.25;;;1.10;;
10801;SDS011;5453;50.852;7.102;2023-09-18T09:43:47;3.72;;;1.20;;
10801;SDS011;5453;50.852;7.102;2023-09-18T09:46:20;2.00;;;0.98;;
10801;SDS011;5453;50.852;7.102;2023-09-18T09:48:59;1.10;;;0.85;;
10801;SDS011;5453;50.852;7.102;2023-09-18T09:51:32;1.30;;;0.90;;
10801;SDS011;5453;50.852;7.102;2023-09-18T09:54:05;2.22;;;1.02;;
10801;SDS011;5453;50.852;7.102;2023-09-18T09:56:42;2.03;;;0.93;;
10801;SDS011;5453;50.852;7.102;2023-09-18T09:59:16;1.70;;;1.00;;
10801;SDS011;5453;50.852;7.102;2023-09-18T10:01:51;2.58;;;1.20;;
10801;SDS011;5453;50.852;7.102;2023-09-18T10:04:25;3.00;;;0.90;;
10801;SDS011;5453;50.852;7.102;2023-09-18T10:07:05;1.90;;;0.93;;
10801;SDS011;5453;50.852;7.102;2023-09-18T10:09:41;2.97;;;1.15;;
10801;SDS011;5453;50.852;7.102;2023-09-18T10:12:15;1.05;;;0.90;;
10801;SDS011;5453;50.852;7.102;2023-09-18T10:14:51;2.60;;;0.90;;
10801;SDS011;5453;50.852;7.102;2023-09-18T10:17:26;1.80;;;1.00;;
10801;SDS011;5453;50.852;7.102;2023-09-18T10:22:47;2.40;;;1.17;;
10801;SDS011;5453;50.852;7.102;2023-09-18T10:25:24;1.08;;;0.82;;
10801;SDS011;5453;50.852;7.102;2023-09-18T10:28:02;2.88;;;1.13;;
10801;SDS011;5453;50.852;7.102;2023-09-18T10:30:37;2.33;;;1.10;;
10801;SDS011;5453;50.852;7.102;2023-09-18T10:33:10;1.90;;;0.90;;
10801;SDS011;5453;50.852;7.102;2023-09-18T10:35:44;2.05;;;0.77;;
10801;SDS011;5453;50.852;7.102;2023-09-18T10:38:18;3.08;;;1.10;;
10801;SDS011;5453;50.852;7.102;2023-09-18T10:40:50;3.88;;;1.08;;
10801;SDS011;5453;50.852;7.102;2023-09-18T10:43:24;3.03;;;1.00;;
10801;SDS011;5453;50.852;7.102;2023-09-18T10:45:56;2.08;;;0.93;;
10801;SDS011;5453;50.852;7.102;2023-09-18T10:48:29;3.42;;;1.00;;
10801;SDS011;5453;50.852;7.102;2023-09-18T10:51:03;1.25;;;0.80;;
10801;SDS011;5453;50.852;7.102;2023-09-18T10:53:35;1.30;;;0.73;;
10801;SDS011;5453;50.852;7.102;2023-09-18T10:56:08;0.77;;;0.77;;
10801;SDS011;5453;50.852;7.102;2023-09-18T10:58:40;1.95;;;0.60;;
10801;SDS011;5453;50.852;7.102;2023-09-18T11:01:14;1.27;;;0.60;;
10801;SDS011;5453;50.852;7.102;2023-09-18T11:03:46;1.02;;;0.80;;
10801;SDS011;5453;50.852;7.102;2023-09-18T11:06:23;1.27;;;0.75;;
10801;SDS011;5453;50.852;7.102;2023-09-18T11:09:00;1.27;;;0.63;;
10801;SDS011;5453;50.852;7.102;2023-09-18T11:11:34;1.88;;;0.80;;
10801;SDS011;5453;50.852;7.102;2023-09-18T11:14:10;1.45;;;0.80;;
10801;SDS011;5453;50.852;7.102;2023-09-18T11:16:43;1.90;;;0.70;;
10801;SDS011;5453;50.852;7.102;2023-09-18T11:19:17;3.90;;;0.90;;
10801;SDS011;5453;50.852;7.102;2023-09-18T11:21:51;2.90;;;0.88;;
10801;SDS011;5453;50.852;7.102;2023-09-18T11:24:40;1.88;;;0.60;;
10801;SDS011;5453;50.852;7.102;2023-09-18T11:27:12;1.25;;;0.80;;
10801;SDS011;5453;50.852;7.102;2023-09-18T11:29:44;2.80;;;0.80;;
10801;SDS011;5453;50.852;7.102;2023-09-18T11:35:11;1.88;;;0.73;;
10801;SDS011;5453;50.852;7.102;2023-09-18T11:37:49;1.65;;;0.98;;
10801;SDS011;5453;50.852;7.102;2023-09-18T11:40:37;1.50;;;0.82;;
10801;SDS011;5453;50.852;7.102;2023-09-18T11:43:19;3.13;;;0.85;;
10801;SDS011;5453;50.852;7.102;2023-09-18T11:45:58;1.75;;;0.80;;
10801;SDS011;5453;50.852;7.102;2023-09-18T11:48:32;3.03;;;0.68;;
10801;SDS011;5453;50.852;7.102;2023-09-18T11:51:06;2.38;;;0.77;;
10801;SDS011;5453;50.852;7.102;2023-09-18T11:53:42;1.63;;;0.80;;
10801;SDS011;5453;50.852;7.102;2023-09-18T11:56:15;1.25;;;0.90;;
10801;SDS011;5453;50.852;7.102;2023-09-18T11:58:49;2.10;;;0.80;;
10801;SDS011;5453;50.852;7.102;2023-09-18T12:01:25;1.67;;;0.63;;
10801;SDS011;5453;50.852;7.102;2023-09-18T12:03:59;2.53;;;0.95;;
10801;SDS011;5453;50.852;7.102;2023-09-18T12:06:32;1.05;;;0.90;;
10801;SDS011;5453;50.852;7.102;2023-09-18T12:09:06;0.90;;;0.70;;
10801;SDS011;5453;50.852;7.102;2023-09-18T12:11:40;1.15;;;0.77;;
10801;SDS011;5453;50.852;7.102;2023-09-18T12:14:15;0.75;;;0.63;;
10801;SDS011;5453;50.852;7.102;2023-09-18T12:16:51;2.40;;;0.70;;
10801;SDS011;5453;50.852;7.102;2023-09-18T12:19:23;1.63;;;0.82;;
10801;SDS011;5453;50.852;7.102;2023-09-18T12:21:56;1.50;;;0.98;;
10801;SDS011;5453;50.852;7.102;2023-09-18T12:24:29;1.95;;;0.90;;
10801;SDS011;5453;50.852;7.102;2023-09-18T12:27:02;1.52;;;0.82;;
10801;SDS011;5453;50.852;7.102;2023-09-18T12:29:34;1.30;;;0.80;;
10801;SDS011;5453;50.852;7.102;2023-09-18T12:32:08;0.80;;;0.63;;
10801;SDS011;5453;50.852;7.102;2023-09-18T12:34:43;2.15;;;0.93;;
10801;SDS011;5453;50.852;7.102;2023-09-18T12:37:17;1.42;;;0.85;;
10801;SDS011;5453;50.852;7.102;2023-09-18T12:39:50;1.10;;;1.00;;
10801;SDS011;5453;50.852;7.102;2023-09-18T12:42:22;0.73;;;0.70;;
10801;SDS011;5453;50.852;7.102;2023-09-18T12:44:55;1.17;;;0.98;;
10801;SDS011;5453;50.852;7.102;2023-09-18T12:47:27;1.75;;;0.80;;
10801;SDS011;5453;50.852;7.102;2023-09-18T12:50:01;1.60;;;0.98;;
10801;SDS011;5453;50.852;7.102;2023-09-18T12:52:36;0.93;;;0.82;;
10801;SDS011;5453;50.852;7.102;2023-09-18T12:55:21;0.95;;;0.50;;
10801;SDS011;5453;50.852;7.102;2023-09-18T12:57:55;1.85;;;1.10;;
10801;SDS011;5453;50.852;7.102;2023-09-18T13:00:27;1.35;;;0.73;;
10801;SDS011;5453;50.852;7.102;2023-09-18T13:03:00;2.15;;;0.90;;
10801;SDS011;5453;50.852;7.102;2023-09-18T13:08:06;1.40;;;0.98;;
10801;SDS011;5453;50.852;7.102;2023-09-18T13:10:44;1.85;;;0.90;;
10801;SDS011;5453;50.852;7.102;2023-09-18T13:13:20;2.20;;;1.13;;
10801;SDS011;5453;50.852;7.102;2023-09-18T13:15:56;1.88;;;0.80;;
10801;SDS011;5453;50.852;7.102;2023-09-18T13:18:29;2.50;;;1.10;;
10801;SDS011;5453;50.852;7.102;2023-09-18T13:21:08;0.80;;;0.60;;
10801;SDS011;5453;50.852;7.102;2023-09-18T13:23:42;2.50;;;1.05;;
10801;SDS011;5453;50.852;7.102;2023-09-18T13:26:15;1.30;;;1.10;;
10801;SDS011;5453;50.852;7.102;2023-09-18T13:28:47;2.78;;;0.73;;
10801;SDS011;5453;50.852;7.102;2023-09-18T13:31:20;2.05;;;0.95;;
10801;SDS011;5453;50.852;7.102;2023-09-18T13:33:52;1.58;;;0.60;;
10801;SDS011;5453;50.852;7.102;2023-09-18T13:36:24;2.00;;;1.08;;
10801;SDS011;5453;50.852;7.102;2023-09-18T13:38:57;2.83;;;0.85;;
10801;SDS011;5453;50.852;7.102;2023-09-18T13:41:30;3.58;;;1.10;;
10801;SDS011;5453;50.852;7.102;2023-09-18T13:44:03;1.25;;;0.88;;
10801;SDS011;5453;50.852;7.102;2023-09-18T13:46:36;2.38;;;0.88;;
10801;SDS011;5453;50.852;7.102;2023-09-18T13:49:11;1.45;;;0.90;;
10801;SDS011;5453;50.852;7.102;2023-09-18T13:51:43;1.33;;;0.90;;
10801;SDS011;5453;50.852;7.102;2023-09-18T13:54:16;1.70;;;1.13;;
10801;SDS011;5453;50.852;7.102;2023-09-18T13:56:50;2.00;;;0.80;;
10801;SDS011;5453;50.852;7.102;2023-09-18T13:59:26;2.42;;;1.02;;
10801;SDS011;5453;50.852;7.102;2023-09-18T14:01:59;2.28;;;0.90;;
10801;SDS011;5453;50.852;7.102;2023-09-18T14:04:31;2.50;;;0.90;;
10801;SDS011;5453;50.852;7.102;2023-09-18T14:07:03;3.53;;;0.90;;
10801;SDS011;5453;50.852;7.102;2023-09-18T14:09:36;1.15;;;0.93;;
10801;SDS011;5453;50.852;7.102;2023-09-18T14:12:10;2.47;;;1.10;;
10801;SDS011;5453;50.852;7.102;2023-09-18T14:14:43;1.63;;;0.80;;
10801;SDS011;5453;50.852;7.102;2023-09-18T14:17:16;1.73;;;0.90;;
10801;SDS011;5453;50.852;7.102;2023-09-18T14:19:51;2.45;;;0.80;;
10801;SDS011;5453;50.852;7.102;2023-09-18T14:22:24;2.80;;;1.23;;
10801;SDS011;5453;50.852;7.102;2023-09-18T14:24:57;2.20;;;1.10;;
10801;SDS011;5453;50.852;7.102;2023-09-18T14:27:31;1.23;;;0.80;;
10801;SDS011;5453;50.852;7.102;2023-09-18T14:30:03;1.25;;;0.90;;
10801;SDS011;5453;50.852;7.102;2023-09-18T14:32:37;2.42;;;1.13;;
10801;SDS011;5453;50.852;7.102;2023-09-18T14:35:09;2.80;;;1.10;;
10801;SDS011;5453;50.852;7.102;2023-09-18T14:37:41;2.50;;;0.85;;
10801;SDS011;5453;50.852;7.102;2023-09-18T14:40:14;3.53;;;0.82;;
10801;SDS011;5453;50.852;7.102;2023-09-18T14:42:47;1.83;;;0.80;;
10801;SDS011;5453;50.852;7.102;2023-09-18T14:45:20;2.78;;;0.95;;
10801;SDS011;5453;50.852;7.102;2023-09-18T14:47:52;2.00;;;0.80;;
10801;SDS011;5453;50.852;7.102;2023-09-18T14:50:25;1.42;;;1.00;;
10801;SDS011;5453;50.852;7.102;2023-09-18T14:52:57;1.98;;;0.70;;
10801;SDS011;5453;50.852;7.102;2023-09-18T14:55:29;1.25;;;0.75;;
10801;SDS011;5453;50.852;7.102;2023-09-18T14:58:03;2.55;;;0.98;;
10801;SDS011;5453;50.852;7.102;2023-09-18T15:00:36;1.08;;;0.70;;
10801;SDS011;5453;50.852;7.102;2023-09-18T15:03:08;2.42;;;1.10;;
10801;SDS011;5453;50.852;7.102;2023-09-18T15:05:40;1.92;;;0.90;;
10801;SDS011;5453;50.852;7.102;2023-09-18T15:08:12;2.17;;;0.90;;
10801;SDS011;5453;50.852;7.102;2023-09-18T15:10:45;3.55;;;1.05;;
10801;SDS011;5453;50.852;7.102;2023-09-18T15:13:19;1.00;;;0.90;;
10801;SDS011;5453;50.852;7.102;2023-09-18T15:15:52;1.67;;;1.00;;
10801;SDS011;5453;50.852;7.102;2023-09-18T15:18:24;1.45;;;0.80;;
10801;SDS011;5453;50.852;7.102;2023-09-18T15:20:57;1.25;;;0.82;;
10801;SDS011;5453;50.852;7.102;2023-09-18T15:23:29;1.35;;;0.95;;
10801;SDS011;5453;50.852;7.102;2023-09-18T15:26:01;1.80;;;1.00;;
10801;SDS011;5453;50.852;7.102;2023-09-18T15:28:35;1.00;;;0.73;;
10801;SDS011;5453;50.852;7.102;2023-09-18T15:31:09;2.05;;;1.00;;
10801;SDS011;5453;50.852;7.102;2023-09-18T15:33:41;2.05;;;1.08;;
10801;SDS011;5453;50.852;7.102;2023-09-18T15:36:14;2.15;;;1.10;;
10801;SDS011;5453;50.852;7.102;2023-09-18T15:38:46;1.90;;;0.77;;
10801;SDS011;5453;50.852;7.102;2023-09-18T15:41:20;1.10;;;1.00;;
10801;SDS011;5453;50.852;7.102;2023-09-18T15:43:53;2.38;;;0.90;;
10801;SDS011;5453;50.852;7.102;2023-09-18T15:46:25;1.15;;;0.55;;
10801;SDS011;5453;50.852;7.102;2023-09-18T15:48:58;0.98;;;0.88;;